EST,Max TemperatureF,Mean TemperatureF,Min TemperatureF,Max Dew PointF,MeanDew PointF,Min DewpointF,Max Humidity, Mean Humidity, Min Humidity, Max Sea Level PressureIn, Mean Sea Level PressureIn, Min Sea Level PressureIn, Max VisibilityMiles, Mean VisibilityMiles, Min VisibilityMiles, Max Wind SpeedMPH, Mean Wind SpeedMPH, Max Gust SpeedMPH,PrecipitationIn, CloudCover, Events, WindDirDegrees
2011-11-1,57,44,30,38,34,30,100,79,39,30.25,30.19,30.16,10,5,0,15,2,21,0.00,2,Fog,179
2011-11-2,64,53,42,38,36,34,76,54,34,30.19,30.11,30.01,10,10,10,16,7,24,0.00,5,,191
2011-11-3,55,46,39,45,39,34,93,76,57,30.17,30.04,29.98,10,10,6,16,8,22,0.00,6,,26
2011-11-4,51,41,32,33,31,30,93,73,48,30.37,30.27,30.16,10,10,10,12,6,16,0.00,3,,30
2011-11-5,52,40,30,34,29,20,92,67,29,30.38,30.31,30.22,10,10,9,13,4,,0.00,1,,135
2011-11-6,61,48,36,41,35,27,89,58,48,30.24,30.18,30.09,10,10,10,15,7,25,0.00,3,,187
2011-11-7,59,56,52,51,45,40,93,70,57,30.23,30.20,30.15,10,9,4,10,6,,0.00,7,Rain,211
2011-11-8,64,56,48,54,49,46,100,85,55,30.21,30.11,29.97,10,4,0,9,5,,0.05,8,Fog-Rain,104
2011-11-9,60,50,39,54,46,33,94,80,58,29.97,29.74,29.55,10,8,2,24,11,39,0.40,7,Rain-Thunderstorm,179
2011-11-10,42,37,32,36,32,26,93,80,55,29.91,29.86,29.82,10,10,8,17,11,26,0.00,6,Rain-Snow,241
2011-11-11,39,36,33,31,28,25,87,73,57,29.95,29.90,29.84,10,10,10,16,12,22,0.00,6,,258
2011-11-12,59,46,33,37,31,26,75,60,42,29.86,29.81,29.77,10,10,10,15,8,25,0.00,4,,203
2011-11-13,62,56,50,53,43,33,75,61,49,29.75,29.58,29.46,10,10,10,21,15,36,0.00,6,Rain,199
2011-11-14,59,50,42,50,39,33,100,74,41,29.70,29.62,29.56,10,8,3,21,9,29,0.33,5,Fog-Rain-Thunderstorm,253
2011-11-15,55,47,39,47,42,33,97,82,49,29.82,29.78,29.73,10,8,4,13,6,20,0.00,2,,208
2011-11-16,46,39,32,44,31,16,100,71,32,30.06,29.89,29.76,10,8,2,22,8,26,0.00,4,,277
2011-11-17,35,30,26,27,20,16,80,66,48,30.22,30.06,29.98,10,9,1,25,11,32,0.00,5,Snow,260
2011-11-18,44,34,24,20,17,12,78,50,27,30.27,30.17,30.03,10,10,10,20,9,32,0.00,4,,200
2011-11-19,54,44,37,44,31,21,76,62,47,30.04,29.95,29.81,10,10,10,20,11,25,0.00,6,,193
2011-11-20,57,46,33,48,37,28,85,71,60,30.33,30.09,29.80,10,10,10,22,12,34,0.00,7,Rain,317
2011-11-21,42,36,30,29,27,26,88,75,58,30.39,30.33,30.28,10,10,10,7,4,,0.00,4,,68
2011-11-22,37,32,28,36,30,25,100,88,76,30.31,30.05,29.75,10,7,4,20,10,26,0.36,6,Rain,65
2011-11-23,48,41,34,36,32,28,100,80,44,30.18,30.04,29.79,10,10,5,16,11,22,0.03,4,Rain,311
2011-11-24,43,39,35,39,36,34,100,90,76,30.23,30.16,30.10,8,5,2,14,9,18,0.00,5,,234
2011-11-25,57,48,39,40,37,34,93,66,44,30.09,30.02,29.93,10,9,6,16,9,23,0.00,4,,206
2011-11-26,57,51,45,51,43,37,90,71,61,30.01,29.96,29.85,10,10,4,17,7,25,0.02,5,Rain,184
2011-11-27,55,45,35,54,45,32,100,92,80,30.05,29.82,29.74,10,9,2,16,11,22,0.57,8,Rain,280
2011-11-28,39,36,32,36,31,28,100,84,75,30.14,30.07,29.92,10,8,2,13,8,18,0.16,7,Rain,25
2011-11-29,37,34,31,37,34,30,100,92,76,29.93,29.73,29.59,10,5,1,28,16,39,1.07,8,Rain-Snow,10
2011-11-30,34,31,28,29,26,24,100,86,73,30.17,29.81,29.63,10,6,1,20,15,29,0.01,6,Snow,306